createdAt,value
2019-05-22T00:02:17.115Z,99140.13
2019-05-22T00:04:44.073Z,99132.33
2019-05-22T00:07:11.043Z,99134.73
2019-05-22T00:09:37.906Z,99139.32
2019-05-22T00:12:04.878Z,99137.28
2019-05-22T00:14:31.833Z,99137.62
2019-05-22T00:16:59.363Z,99137.56
2019-05-22T00:19:26.315Z,99137.81
2019-05-22T00:21:53.261Z,99135.19
2019-05-22T00:24:20.140Z,99148.59
2019-05-22T00:26:47.112Z,99150.02
2019-05-22T00:29:14.043Z,99149.49
2019-05-22T00:31:40.928Z,99138.09
2019-05-22T00:34:07.976Z,99143.23
2019-05-22T00:36:34.943Z,99147.45
2019-05-22T00:39:01.846Z,99149.44
2019-05-22T00:41:29.980Z,99154.16
2019-05-22T00:43:57.021Z,99151.59
2019-05-22T00:46:23.988Z,99151.95
2019-05-22T00:48:50.907Z,99153.59
2019-05-22T00:51:17.861Z,99160.36
2019-05-22T00:53:44.818Z,99156.59
2019-05-22T00:56:11.749Z,99155.36
2019-05-22T00:58:38.612Z,99161.48
2019-05-22T01:01:05.553Z,99153.17
2019-05-22T01:03:32.433Z,99159.92
2019-05-22T01:05:59.324Z,99158.52
2019-05-22T01:08:26.224Z,99160.92
2019-05-22T01:10:53.419Z,99159.51
2019-05-22T01:13:20.677Z,99152.53
2019-05-22T01:15:47.621Z,99162.93
2019-05-22T01:18:14.530Z,99158.12
2019-05-22T01:20:41.493Z,99170.22
2019-05-22T01:23:08.404Z,99168.13
2019-05-22T01:25:35.353Z,99159.33
2019-05-22T01:28:02.257Z,99168.75
2019-05-22T01:30:29.489Z,99167.61
2019-05-22T01:32:56.398Z,99166.15
2019-05-22T01:35:23.344Z,99160.25
2019-05-22T01:37:50.309Z,99159.22
2019-05-22T01:40:17.177Z,99150.14
2019-05-22T01:42:44.043Z,99162.20
2019-05-22T01:45:11.029Z,99158.66
2019-05-22T01:47:38.000Z,99169.03
2019-05-22T01:50:04.937Z,99170.09
2019-05-22T01:52:31.849Z,99177.89
2019-05-22T01:54:58.808Z,99178.69
2019-05-22T01:57:25.760Z,99185.78
2019-05-22T01:59:52.648Z,99179.80
2019-05-22T02:02:19.603Z,99181.12
2019-05-22T02:04:46.571Z,99184.55
2019-05-22T02:07:13.449Z,99190.36
2019-05-22T02:09:40.416Z,99190.80
2019-05-22T02:12:07.297Z,99192.33
2019-05-22T02:14:34.268Z,99194.30
2019-05-22T02:17:01.314Z,99195.50
2019-05-22T02:19:28.364Z,99189.53
2019-05-22T02:21:55.291Z,99193.61
2019-05-22T02:24:22.185Z,99195.50
2019-05-22T02:26:49.139Z,99203.09
2019-05-22T02:29:16.026Z,99199.77
2019-05-22T02:31:42.989Z,99198.95
2019-05-22T02:34:09.901Z,99198.44
2019-05-22T02:36:36.852Z,99202.45
2019-05-22T02:39:03.778Z,99206.46
2019-05-22T02:41:30.744Z,99210.16
2019-05-22T02:43:57.696Z,99207.19
2019-05-22T02:46:24.636Z,99209.31
2019-05-22T02:48:51.622Z,99212.20
2019-05-22T02:51:18.587Z,99217.18
2019-05-22T02:53:45.839Z,99221.16
2019-05-22T02:56:12.834Z,99226.98
2019-05-22T02:58:39.725Z,99228.34
2019-05-22T03:01:06.625Z,99237.05
2019-05-22T03:03:33.554Z,99233.28
2019-05-22T03:06:00.515Z,99230.99
2019-05-22T03:08:27.447Z,99235.45
2019-05-22T03:10:54.326Z,99238.91
2019-05-22T03:13:21.205Z,99240.43
2019-05-22T03:15:48.172Z,99248.30
2019-05-22T03:18:15.125Z,99246.93
2019-05-22T03:20:42.118Z,99246.53
2019-05-22T03:23:09.029Z,99245.64
2019-05-22T03:25:35.917Z,99242.44
2019-05-22T03:28:02.891Z,99241.31
2019-05-22T03:30:29.910Z,99243.31
2019-05-22T03:32:57.797Z,99246.33
2019-05-22T03:35:25.217Z,99248.69
2019-05-22T03:37:52.195Z,99245.36
2019-05-22T03:40:20.111Z,99241.70
2019-05-22T03:42:47.074Z,99249.88
2019-05-22T03:45:14.027Z,99259.63
2019-05-22T03:47:40.978Z,99257.06
2019-05-22T03:50:07.844Z,99258.11
2019-05-22T03:52:34.737Z,99264.28
2019-05-22T03:55:01.753Z,99261.44
2019-05-22T03:57:28.748Z,99262.34
2019-05-22T03:59:55.703Z,99263.69
2019-05-22T04:02:22.656Z,99267.47
2019-05-22T04:04:49.605Z,99265.25
2019-05-22T04:07:16.592Z,99263.66
2019-05-22T04:09:43.555Z,99256.43
2019-05-22T04:12:10.499Z,99260.20
2019-05-22T04:14:37.372Z,99255.02
2019-05-22T04:17:04.260Z,99262.85
2019-05-22T04:19:47.276Z,99264.46
2019-05-22T04:21:59.741Z,99272.31
2019-05-22T04:24:26.697Z,99278.43
2019-05-22T04:26:53.664Z,99283.41
2019-05-22T04:29:20.607Z,99279.72
2019-05-22T04:31:47.505Z,99285.96
2019-05-22T04:34:14.470Z,99284.16
2019-05-22T04:36:41.451Z,99282.64
2019-05-22T04:39:08.398Z,99290.88
2019-05-22T04:41:35.339Z,99294.22
2019-05-22T04:44:02.270Z,99293.30
2019-05-22T04:46:29.163Z,99292.70
2019-05-22T04:48:56.121Z,99294.97
2019-05-22T04:51:23.059Z,99296.25
2019-05-22T04:53:50.271Z,99297.91
2019-05-22T04:56:17.134Z,99297.81
2019-05-22T04:58:44.074Z,99304.50
2019-05-22T05:01:11.033Z,99308.03
2019-05-22T05:03:37.921Z,99303.08
2019-05-22T05:06:06.928Z,99315.87
2019-05-22T05:08:33.454Z,99311.44
2019-05-22T05:11:00.333Z,99318.62
2019-05-22T05:13:27.285Z,99314.08
2019-05-22T05:15:54.280Z,99324.77
2019-05-22T05:18:21.605Z,99324.95
2019-05-22T05:20:48.541Z,99328.36
2019-05-22T05:23:15.522Z,99331.55
2019-05-22T05:25:42.407Z,99336.06
2019-05-22T05:28:09.308Z,99346.70
2019-05-22T05:30:36.325Z,99347.09
2019-05-22T05:33:03.360Z,99338.63
2019-05-22T05:35:31.961Z,99344.97
2019-05-22T05:37:58.909Z,99344.20
2019-05-22T05:40:25.831Z,99347.95
2019-05-22T05:42:52.753Z,99344.95
2019-05-22T05:45:19.615Z,99345.50
2019-05-22T05:47:46.501Z,99337.25
2019-05-22T05:50:13.824Z,99348.38
2019-05-22T05:52:40.706Z,99351.74
2019-05-22T05:55:07.744Z,99346.72
2019-05-22T05:57:35.794Z,99345.95
2019-05-22T06:00:03.891Z,99354.78
2019-05-22T06:02:30.929Z,99347.73
2019-05-22T06:04:57.918Z,99348.02
2019-05-22T06:07:24.868Z,99348.72
2019-05-22T06:09:51.773Z,99345.66
2019-05-22T06:12:18.716Z,99354.36
2019-05-22T06:14:45.686Z,99360.27
2019-05-22T06:17:12.597Z,99366.03
2019-05-22T06:19:39.551Z,99366.67
2019-05-22T06:22:06.503Z,99372.41
2019-05-22T06:24:33.454Z,99368.89
2019-05-22T06:27:00.313Z,99370.24
2019-05-22T06:29:27.920Z,99361.92
2019-05-22T06:31:55.276Z,99365.02
2019-05-22T06:34:22.174Z,99362.90
2019-05-22T06:36:49.132Z,99368.80
2019-05-22T06:39:16.062Z,99368.19
2019-05-22T06:41:43.261Z,99379.59
2019-05-22T06:44:10.317Z,99376.11
2019-05-22T06:46:37.228Z,99379.35
2019-05-22T06:49:04.094Z,99375.08
2019-05-22T06:51:31.048Z,99378.35
2019-05-22T06:53:57.982Z,99384.25
2019-05-22T06:56:24.921Z,99385.47
2019-05-22T06:58:51.819Z,99381.86
2019-05-22T07:01:18.806Z,99384.72
2019-05-22T07:03:45.745Z,99381.63
2019-05-22T07:06:12.695Z,99390.33
2019-05-22T07:08:39.878Z,99386.20
2019-05-22T07:11:06.864Z,99397.68
2019-05-22T07:13:33.841Z,99399.09
2019-05-22T07:16:00.809Z,99403.31
2019-05-22T07:18:27.746Z,99398.89
2019-05-22T07:20:54.643Z,99405.16
2019-05-22T07:23:21.642Z,99404.89
2019-05-22T07:25:48.569Z,99405.61
2019-05-22T07:28:15.596Z,99406.92
2019-05-22T07:30:42.886Z,99414.62
2019-05-22T07:33:09.755Z,99416.03
2019-05-22T07:35:50.367Z,99419.31
2019-05-22T07:38:05.337Z,99418.43
2019-05-22T07:40:32.315Z,99426.12
2019-05-22T07:42:59.252Z,99420.39
2019-05-22T07:45:26.137Z,99420.52
2019-05-22T07:47:53.175Z,99427.31
2019-05-22T07:50:20.192Z,99427.17
2019-05-22T07:52:47.138Z,99446.55
2019-05-22T07:55:14.085Z,99440.91
2019-05-22T07:57:41.042Z,99441.04
2019-05-22T08:00:07.910Z,99448.33
2019-05-22T08:02:34.861Z,99450.89
2019-05-22T08:05:02.102Z,99449.21
2019-05-22T08:07:29.069Z,99456.94
2019-05-22T08:09:56.429Z,99454.36
2019-05-22T08:12:23.364Z,99459.99
2019-05-22T08:14:50.411Z,99455.77
2019-05-22T08:17:17.410Z,99456.92
2019-05-22T08:19:44.466Z,99457.30
2019-05-22T08:22:11.426Z,99463.98
2019-05-22T08:24:38.398Z,99467.95
2019-05-22T08:27:05.353Z,99463.86
2019-05-22T08:29:32.306Z,99469.88
2019-05-22T08:31:59.394Z,99476.16
2019-05-22T08:34:26.797Z,99467.95
2019-05-22T08:36:53.837Z,99471.22
2019-05-22T08:39:21.393Z,99472.36
2019-05-22T08:41:49.265Z,99482.67
2019-05-22T08:44:17.773Z,99488.97
2019-05-22T08:46:44.966Z,99484.03
2019-05-22T08:49:11.925Z,99479.93
2019-05-22T08:51:38.907Z,99492.19
2019-05-22T08:54:06.183Z,99493.91
2019-05-22T08:56:33.309Z,99503.31
2019-05-22T08:59:18.099Z,99502.97
2019-05-22T09:01:29.172Z,99501.25
2019-05-22T09:03:56.473Z,99504.97
2019-05-22T09:06:23.549Z,99508.84
2019-05-22T09:08:50.605Z,99513.34
2019-05-22T09:11:17.651Z,99523.46
2019-05-22T09:13:44.525Z,99537.38
2019-05-22T09:16:11.499Z,99532.65
2019-05-22T09:18:38.453Z,99540.28
2019-05-22T09:21:05.331Z,99542.32
2019-05-22T09:23:32.403Z,99544.17
2019-05-22T09:25:59.380Z,99543.98
2019-05-22T09:28:27.340Z,99543.69
2019-05-22T09:30:54.367Z,99546.10
2019-05-22T09:33:21.357Z,99547.08
2019-05-22T09:35:48.836Z,99547.58
2019-05-22T09:38:15.799Z,99549.27
2019-05-22T09:40:42.752Z,99552.02
2019-05-22T09:43:09.741Z,99558.42
2019-05-22T09:45:36.665Z,99560.70
2019-05-22T09:48:03.600Z,99565.70
2019-05-22T09:50:30.475Z,99557.81
2019-05-22T09:52:58.303Z,99564.47
2019-05-22T09:55:25.833Z,99566.98
2019-05-22T09:57:52.864Z,99567.69
2019-05-22T10:00:19.819Z,99575.13
2019-05-22T10:02:46.833Z,99585.21
2019-05-22T10:05:13.806Z,99580.50
2019-05-22T10:07:58.115Z,99585.28
2019-05-22T10:10:09.535Z,99577.52
2019-05-22T10:12:36.531Z,99576.78
2019-05-22T10:15:04.377Z,99586.33
2019-05-22T10:17:31.966Z,99581.09
2019-05-22T10:19:58.941Z,99589.80
2019-05-22T10:22:25.984Z,99591.86
2019-05-22T10:24:52.936Z,99602.30
2019-05-22T10:27:19.814Z,99602.92
2019-05-22T10:29:46.690Z,99599.80
2019-05-22T10:32:14.093Z,99603.64
2019-05-22T10:34:41.008Z,99606.80
2019-05-22T10:37:08.930Z,99606.95
2019-05-22T10:39:35.875Z,99608.15
2019-05-22T10:42:02.917Z,99617.69
2019-05-22T10:44:31.274Z,99612.42
2019-05-22T10:46:58.225Z,99621.19
2019-05-22T10:49:25.111Z,99621.53
2019-05-22T10:51:52.079Z,99626.98
2019-05-22T10:54:19.363Z,99628.19
2019-05-22T10:56:46.243Z,99628.55
2019-05-22T10:59:13.245Z,99622.94
2019-05-22T11:01:40.287Z,99632.91
2019-05-22T11:04:07.242Z,99629.32
2019-05-22T11:06:34.236Z,99635.47
2019-05-22T11:09:01.198Z,99635.09
2019-05-22T11:11:30.023Z,99625.27
2019-05-22T11:14:02.026Z,99636.55
2019-05-22T11:16:25.632Z,99631.22
2019-05-22T11:18:52.626Z,99632.00
2019-05-22T11:21:19.557Z,99637.33
2019-05-22T11:23:51.851Z,99636.05
2019-05-22T11:26:15.265Z,99629.23
2019-05-22T11:28:42.387Z,99634.24
2019-05-22T11:31:09.814Z,99634.53
2019-05-22T11:33:36.821Z,99632.11
2019-05-22T11:36:03.806Z,99629.45
2019-05-22T11:38:30.801Z,99639.42
2019-05-22T11:40:57.753Z,99635.08
2019-05-22T11:43:24.645Z,99637.02
2019-05-22T11:45:51.592Z,99639.47
2019-05-22T11:48:18.551Z,99640.88
2019-05-22T11:50:45.481Z,99639.12
2019-05-22T11:53:12.440Z,99640.75
2019-05-22T11:55:45.061Z,99638.69
2019-05-22T11:58:07.990Z,99636.07
2019-05-22T12:00:34.913Z,99650.64
2019-05-22T12:03:01.825Z,99647.96
2019-05-22T12:05:28.780Z,99648.45
2019-05-22T12:07:56.033Z,99648.45
2019-05-22T12:10:23.274Z,99655.94
2019-05-22T12:12:50.737Z,99663.77
2019-05-22T12:15:18.084Z,99655.47
2019-05-22T12:17:45.033Z,99661.32
2019-05-22T12:20:12.008Z,99653.45
2019-05-22T12:22:38.933Z,99659.23
2019-05-22T12:25:05.899Z,99660.77
2019-05-22T12:27:32.835Z,99660.40
2019-05-22T12:29:59.832Z,99659.18
2019-05-22T12:32:27.149Z,99664.63
2019-05-22T12:34:54.152Z,99660.53
2019-05-22T12:37:21.095Z,99660.16
2019-05-22T12:39:47.994Z,99667.34
2019-05-22T12:42:14.879Z,99663.34
2019-05-22T12:44:41.845Z,99661.39
2019-05-22T12:47:08.800Z,99667.42
2019-05-22T12:49:36.050Z,99666.27
2019-05-22T12:52:02.996Z,99671.71
2019-05-22T12:54:45.184Z,99668.16
2019-05-22T12:56:58.519Z,99675.23
2019-05-22T12:59:25.469Z,99663.78
2019-05-22T13:01:52.333Z,99673.28
2019-05-22T13:04:19.228Z,99674.09
2019-05-22T13:06:46.182Z,99684.22
2019-05-22T13:09:13.043Z,99677.02
2019-05-22T13:11:40.028Z,99675.25
2019-05-22T13:14:07.000Z,99674.46
2019-05-22T13:16:33.986Z,99673.12
2019-05-22T13:19:00.992Z,99676.04
2019-05-22T13:21:27.917Z,99677.22
2019-05-22T13:23:54.782Z,99682.47
2019-05-22T13:26:21.648Z,99682.47
2019-05-22T13:28:48.803Z,99676.96
2019-05-22T13:31:15.736Z,99673.33
2019-05-22T13:33:42.732Z,99681.05
2019-05-22T13:36:09.727Z,99685.12
2019-05-22T13:38:36.720Z,99685.85
2019-05-22T13:41:03.633Z,99684.83
2019-05-22T13:43:30.600Z,99679.27
2019-05-22T13:45:57.505Z,99687.21
2019-05-22T13:48:25.421Z,99690.39
2019-05-22T13:50:52.381Z,99688.72
2019-05-22T13:53:19.337Z,99692.05
2019-05-22T13:55:46.412Z,99702.59
2019-05-22T13:58:13.797Z,99699.84
2019-05-22T14:00:40.784Z,99690.08
2019-05-22T14:03:07.803Z,99697.77
2019-05-22T14:05:35.155Z,99697.84
2019-05-22T14:08:02.113Z,99701.63
2019-05-22T14:10:29.070Z,99707.86
2019-05-22T14:12:56.120Z,99706.57
2019-05-22T14:15:23.091Z,99701.97
2019-05-22T14:17:50.095Z,99714.38
2019-05-22T14:20:17.057Z,99712.34
2019-05-22T14:22:44.049Z,99709.78
2019-05-22T14:25:11.013Z,99714.38
2019-05-22T14:27:41.668Z,99709.78
2019-05-22T14:30:06.676Z,99708.16
2019-05-22T14:32:33.902Z,99709.13
2019-05-22T14:35:01.163Z,99708.52
2019-05-22T14:37:28.259Z,99715.97
2019-05-22T14:39:55.187Z,99714.43
2019-05-22T14:42:22.065Z,99718.16
2019-05-22T14:44:48.990Z,99712.91
2019-05-22T14:47:16.781Z,99717.13
2019-05-22T14:49:43.977Z,99717.34
2019-05-22T14:52:10.968Z,99721.73
2019-05-22T14:54:37.917Z,99722.61
2019-05-22T14:57:04.798Z,99713.20
2019-05-22T14:59:31.689Z,99715.38
2019-05-22T15:01:58.597Z,99715.77
2019-05-22T15:04:25.538Z,99725.42
2019-05-22T15:06:52.558Z,99725.53
2019-05-22T15:09:19.450Z,99733.60
2019-05-22T15:11:46.391Z,99730.77
2019-05-22T15:14:13.296Z,99729.75
2019-05-22T15:16:40.319Z,99735.66
2019-05-22T15:19:07.388Z,99722.35
2019-05-22T15:21:34.321Z,99728.76
2019-05-22T15:24:01.196Z,99723.16
2019-05-22T15:26:28.329Z,99740.06
2019-05-22T15:28:55.569Z,99724.07
2019-05-22T15:31:22.766Z,99729.52
2019-05-22T15:33:50.648Z,99732.48
2019-05-22T15:36:17.779Z,99726.25
2019-05-22T15:38:45.091Z,99738.69
2019-05-22T15:41:13.027Z,99731.77
2019-05-22T15:43:40.035Z,99736.95
2019-05-22T15:46:07.958Z,99746.62
2019-05-22T15:48:35.043Z,99742.78
2019-05-22T15:51:02.049Z,99747.05
2019-05-22T15:53:29.077Z,99747.66
2019-05-22T15:55:56.041Z,99747.48
2019-05-22T15:58:23.097Z,99753.89
2019-05-22T16:00:52.037Z,99751.44
2019-05-22T16:03:19.601Z,99753.84
2019-05-22T16:05:46.748Z,99750.05
2019-05-22T16:08:13.663Z,99758.69
2019-05-22T16:10:41.634Z,99761.52
2019-05-22T16:13:08.596Z,99768.30
2019-05-22T16:15:35.939Z,99767.02
2019-05-22T16:18:11.535Z,99775.61
2019-05-22T16:20:31.909Z,99768.03
2019-05-22T16:22:58.882Z,99771.39
2019-05-22T16:25:25.895Z,99770.21
2019-05-22T16:27:52.829Z,99779.40
2019-05-22T16:30:19.803Z,99783.39
2019-05-22T16:32:46.748Z,99775.13
2019-05-22T16:35:14.218Z,99781.69
2019-05-22T16:37:41.188Z,99787.67
2019-05-22T16:40:08.281Z,99780.63
2019-05-22T16:42:35.166Z,99790.18
2019-05-22T16:45:02.123Z,99787.62
2019-05-22T16:47:29.014Z,99788.40
2019-05-22T16:49:56.017Z,99790.22
2019-05-22T16:52:23.369Z,99792.14
2019-05-22T16:54:50.309Z,99795.19
2019-05-22T16:57:17.256Z,99802.61
2019-05-22T16:59:44.203Z,99805.53
2019-05-22T17:02:11.085Z,99799.81
2019-05-22T17:04:38.048Z,99804.42
2019-05-22T17:07:05.019Z,99801.38
2019-05-22T17:09:31.986Z,99806.07
2019-05-22T17:11:58.955Z,99808.90
2019-05-22T17:14:25.885Z,99812.89
2019-05-22T17:16:52.886Z,99816.48
2019-05-22T17:19:27.190Z,99810.45
2019-05-22T17:21:48.433Z,99817.22
2019-05-22T17:24:15.380Z,99825.01
2019-05-22T17:26:42.322Z,99827.95
2019-05-22T17:29:09.188Z,99832.16
2019-05-22T17:31:36.947Z,99829.34
2019-05-22T17:34:03.897Z,99829.30
2019-05-22T17:36:30.832Z,99826.07
2019-05-22T17:38:59.001Z,99831.76
2019-05-22T17:41:26.209Z,99829.71
2019-05-22T17:43:53.589Z,99825.34
2019-05-22T17:46:20.577Z,99830.70
2019-05-22T17:48:47.506Z,99825.45
2019-05-22T17:51:14.394Z,99829.61
2019-05-22T17:53:41.273Z,99829.19
2019-05-22T17:56:08.190Z,99827.52
2019-05-22T17:58:35.153Z,99834.30
2019-05-22T18:01:03.156Z,99838.31
2019-05-22T18:03:30.205Z,99839.67
2019-05-22T18:05:57.215Z,99837.81
2019-05-22T18:08:24.181Z,99844.33
2019-05-22T18:10:51.194Z,99840.86
2019-05-22T18:13:18.612Z,99840.08
2019-05-22T18:15:46.118Z,99842.99
2019-05-22T18:18:13.335Z,99841.95
2019-05-22T18:20:43.790Z,99849.28
2019-05-22T18:23:09.249Z,99854.39
2019-05-22T18:25:36.200Z,99854.77
2019-05-22T18:28:03.136Z,99861.97
2019-05-22T18:30:32.368Z,99858.13
2019-05-22T18:33:01.512Z,99865.76
2019-05-22T18:35:29.094Z,99868.76
2019-05-22T18:37:56.023Z,99869.70
2019-05-22T18:40:23.275Z,99873.69
2019-05-22T18:42:50.237Z,99874.87
2019-05-22T18:45:18.334Z,99874.87
2019-05-22T18:47:45.282Z,99879.99
2019-05-22T18:50:12.478Z,99883.09
2019-05-22T18:52:41.425Z,99883.04
2019-05-22T18:55:08.099Z,99886.50
2019-05-22T18:57:35.025Z,99885.02
2019-05-22T19:00:05.649Z,99885.81
2019-05-22T19:02:32.198Z,99890.55
2019-05-22T19:04:59.117Z,99899.03
2019-05-22T19:07:26.042Z,99892.96
2019-05-22T19:09:52.992Z,99903.05
2019-05-22T19:12:19.994Z,99898.83
2019-05-22T19:14:46.870Z,99901.77
2019-05-22T19:17:13.849Z,99902.08
2019-05-22T19:19:40.767Z,99893.70
2019-05-22T19:22:07.780Z,99901.08
2019-05-22T19:24:34.730Z,99905.23
2019-05-22T19:27:02.261Z,99902.56
2019-05-22T19:29:29.197Z,99900.59
2019-05-22T19:31:56.528Z,99907.11
2019-05-22T19:34:23.489Z,99905.52
2019-05-22T19:36:50.463Z,99910.28
2019-05-22T19:39:18.457Z,99910.13
2019-05-22T19:42:01.110Z,99913.02
2019-05-22T19:44:14.305Z,99915.69
2019-05-22T19:46:44.109Z,99916.17
2019-05-22T19:49:11.069Z,99914.52
2019-05-22T19:51:38.210Z,99916.80
2019-05-22T19:54:05.254Z,99923.09
2019-05-22T19:56:33.648Z,99923.97
2019-05-22T19:59:01.749Z,99925.32
2019-05-22T20:01:28.718Z,99924.09
2019-05-22T20:03:55.736Z,99918.22
2019-05-22T20:06:22.704Z,99920.02
2019-05-22T20:08:50.010Z,99918.17
2019-05-22T20:11:17.260Z,99921.41
2019-05-22T20:13:44.228Z,99918.73
2019-05-22T20:16:11.245Z,99923.48
2019-05-22T20:18:38.201Z,99922.51
2019-05-22T20:21:05.201Z,99926.84
2019-05-22T20:23:36.255Z,99923.97
2019-05-22T20:26:01.096Z,99924.02
2019-05-22T20:28:28.071Z,99922.69
2019-05-22T20:30:55.198Z,99932.13
2019-05-22T20:33:22.206Z,99923.48
2019-05-22T20:35:49.078Z,99936.62
2019-05-22T20:38:16.094Z,99938.70
2019-05-22T20:40:46.149Z,99935.11
2019-05-22T20:43:13.241Z,99937.78
2019-05-22T20:45:40.430Z,99941.98
2019-05-22T20:48:07.595Z,99938.34
2019-05-22T20:50:34.581Z,99937.55
2019-05-22T20:53:02.603Z,99938.06
2019-05-22T20:55:29.718Z,99941.80
2019-05-22T20:57:56.785Z,99940.58
2019-05-22T21:00:23.966Z,99945.05
2019-05-22T21:02:50.993Z,99947.09
2019-05-22T21:05:18.363Z,99946.92
2019-05-22T21:07:45.335Z,99950.67
2019-05-22T21:10:12.360Z,99951.16
2019-05-22T21:12:39.327Z,99953.33
2019-05-22T21:15:06.318Z,99955.16
2019-05-22T21:17:33.815Z,99956.27
2019-05-22T21:20:01.236Z,99957.55
2019-05-22T21:22:28.212Z,99956.17
2019-05-22T21:24:56.135Z,99961.13
2019-05-22T21:27:23.641Z,99961.61
2019-05-22T21:29:50.897Z,99962.41
2019-05-22T21:32:18.019Z,99956.28
2019-05-22T21:34:44.954Z,99952.77
2019-05-22T21:37:11.908Z,99955.23
2019-05-22T21:39:38.901Z,99953.56
2019-05-22T21:42:05.777Z,99947.64
2019-05-22T21:44:32.734Z,99952.77
2019-05-22T21:46:59.768Z,99953.33
2019-05-22T21:49:26.978Z,99952.05
2019-05-22T21:51:54.026Z,99963.63
2019-05-22T21:54:21.066Z,99956.77
2019-05-22T21:56:48.123Z,99963.17
2019-05-22T21:59:15.133Z,99952.48
2019-05-22T22:01:42.418Z,99957.56
2019-05-22T22:04:09.381Z,99959.91
2019-05-22T22:06:36.357Z,99956.00
2019-05-22T22:09:03.426Z,99960.61
2019-05-22T22:11:30.572Z,99963.44
2019-05-22T22:13:57.656Z,99967.61
2019-05-22T22:16:24.628Z,99962.41
2019-05-22T22:18:51.784Z,99968.34
2019-05-22T22:21:18.742Z,99964.82
2019-05-22T22:23:45.738Z,99971.70
2019-05-22T22:26:25.601Z,99978.10
2019-05-22T22:28:43.249Z,99969.18
2019-05-22T22:31:10.563Z,99976.88
2019-05-22T22:33:37.986Z,99975.12
2019-05-22T22:36:05.029Z,99973.77
2019-05-22T22:38:31.916Z,99982.12
2019-05-22T22:40:58.960Z,99979.97
2019-05-22T22:43:25.888Z,99977.36
2019-05-22T22:45:52.953Z,99980.73
2019-05-22T22:48:19.892Z,99978.23
2019-05-22T22:50:46.812Z,99977.80
2019-05-22T22:53:13.772Z,99979.56
2019-05-22T22:55:40.754Z,99980.82
2019-05-22T22:58:16.802Z,99982.98
2019-05-22T23:00:36.292Z,99983.44
2019-05-22T23:03:03.169Z,99981.53
2019-05-22T23:05:30.085Z,99987.13
2019-05-22T23:07:57.017Z,99989.69
2019-05-22T23:10:23.876Z,99989.32
2019-05-22T23:12:50.746Z,99992.30
2019-05-22T23:15:18.456Z,99990.73
2019-05-22T23:17:45.640Z,99993.54
2019-05-22T23:20:12.529Z,99990.55
2019-05-22T23:22:39.459Z,99995.91
2019-05-22T23:25:06.331Z,99992.54
2019-05-22T23:27:33.629Z,99997.66
2019-05-22T23:30:00.695Z,99998.56
2019-05-22T23:32:27.672Z,100001.12
2019-05-22T23:34:54.630Z,100002.98
2019-05-22T23:37:21.502Z,100002.34
2019-05-22T23:39:48.369Z,100009.11
2019-05-22T23:42:15.243Z,100011.16
2019-05-22T23:44:42.105Z,100005.55
2019-05-22T23:47:09.078Z,100005.22
2019-05-22T23:49:36.045Z,100009.11
2019-05-22T23:52:03.025Z,100010.30
2019-05-22T23:54:29.981Z,100009.92
2019-05-22T23:56:56.942Z,100006.55
2019-05-22T23:59:23.806Z,100016.28
